Time;durP1;ratioP1;P1;durP2;ratioP2;P2;SDS_P1;SDS_P2;PMS_P1;PMS_P2;Temp;Humidity;BMP_temperature;BMP_pressure;BME280_temperature;BME280_humidity;BME280_pressure;Samples;Min_cycle;Max_cycle;Signal;HPM_P1;HPM_P2
2022/05/15 00:04:38;;;;;;;21.77;9.73;;;;;12.50;101462.00;;;;9985330;29;20631;-80
2022/05/15 00:09:40;;;;;;;23.80;10.70;;;;;12.40;101452.00;;;;9953237;29;20211;-80
2022/05/15 00:14:43;;;;;;;21.13;11.13;;;;;12.40;101450.00;;;;9997326;29;20266;-80
2022/05/15 00:19:45;;;;;;;20.67;10.93;;;;;12.30;101448.00;;;;9971703;29;20241;-80
2022/05/15 00:24:47;;;;;;;16.77;11.53;;;;;12.20;101444.00;;;;9983801;29;20202;-80
2022/05/15 00:29:49;;;;;;;24.27;11.77;;;;;12.10;101442.00;;;;9952317;29;20214;-80
2022/05/15 00:34:51;;;;;;;19.80;10.77;;;;;12.10;101440.00;;;;9977505;29;20266;-80
2022/05/15 00:39:53;;;;;;;17.03;11.07;;;;;12.00;101443.00;;;;9996291;29;20201;-80
2022/05/15 00:44:55;;;;;;;20.67;10.87;;;;;11.90;101448.00;;;;9970030;29;20661;-80
2022/05/15 00:49:57;;;;;;;17.40;11.23;;;;;11.80;101450.00;;;;9981560;29;20214;-80
2022/05/15 00:55:05;;;;;;;22.03;11.40;;;;;11.70;101460.00;;;;9980101;29;20198;-80
2022/05/15 01:00:25;;;;;;;21.33;11.17;;;;;11.70;101455.00;;;;9979403;29;20198;-80
2022/05/15 01:05:27;;;;;;;25.47;12.33;;;;;11.60;101450.00;;;;9979080;29;20205;-80
2022/05/15 01:10:30;;;;;;;23.60;11.27;;;;;11.60;101443.00;;;;9987148;29;20208;-81
2022/05/15 01:15:33;;;;;;;24.90;11.10;;;;;11.50;101449.00;;;;9983633;29;20216;-80
2022/05/15 01:20:39;;;;;;;20.40;11.30;;;;;11.40;101442.00;;;;9981227;29;20226;-80
2022/05/15 01:25:41;;;;;;;18.60;11.60;;;;;11.30;101439.00;;;;9958129;29;20214;-80
2022/05/15 01:30:47;;;;;;;21.80;12.43;;;;;11.30;101432.00;;;;9994147;29;20190;-81
2022/05/15 01:35:51;;;;;;;22.10;11.40;;;;;11.20;101432.00;;;;10015707;29;20546;-80
2022/05/15 01:40:53;;;;;;;21.60;12.07;;;;;11.10;101431.00;;;;9985651;29;20201;-80
2022/05/15 01:45:55;;;;;;;25.50;11.90;;;;;11.00;101437.00;;;;9970632;29;20218;-80
2022/05/15 01:50:58;;;;;;;23.47;13.00;;;;;11.00;101421.00;;;;9982203;29;20653;-80
2022/05/15 01:56:03;;;;;;;22.73;12.67;;;;;10.90;101421.00;;;;9979632;29;20198;-80
2022/05/15 02:01:06;;;;;;;26.40;11.70;;;;;10.80;101416.00;;;;10016434;29;20206;-80
2022/05/15 02:06:09;;;;;;;18.47;11.77;;;;;10.70;101424.00;;;;9985216;29;20226;-80
2022/05/15 02:11:12;;;;;;;19.30;11.40;;;;;10.60;101427.00;;;;9976287;29;20202;-80
2022/05/15 02:16:14;;;;;;;19.13;11.53;;;;;10.50;101420.00;;;;9957245;29;20258;-80
2022/05/15 02:21:16;;;;;;;20.33;12.30;;;;;10.40;101415.00;;;;9984609;29;20210;-80
2022/05/15 02:26:18;;;;;;;23.03;11.90;;;;;10.40;101415.00;;;;10034876;29;20213;-80
2022/05/15 02:31:19;;;;;;;21.53;11.80;;;;;10.30;101412.00;;;;9957215;29;20255;-80
2022/05/15 02:36:21;;;;;;;17.00;11.20;;;;;10.20;101401.00;;;;9969724;29;20284;-80
2022/05/15 02:41:24;;;;;;;19.10;11.87;;;;;10.20;101401.00;;;;10010967;29;20206;-81
2022/05/15 02:46:26;;;;;;;23.60;12.63;;;;;10.10;101409.00;;;;9994206;29;20228;-81
2022/05/15 02:51:30;;;;;;;22.97;13.30;;;;;10.10;101405.00;;;;9996699;29;20654;-80
2022/05/15 02:56:33;;;;;;;25.07;13.97;;;;;10.10;101410.00;;;;9960926;29;20194;-80
2022/05/15 03:01:39;;;;;;;25.00;13.87;;;;;10.00;101408.00;;;;9971869;29;20293;-80
2022/05/15 03:06:41;;;;;;;20.63;14.27;;;;;9.90;101409.00;;;;9991915;29;20252;-80
2022/05/15 03:11:43;;;;;;;26.43;15.07;;;;;9.80;101402.00;;;;10013925;29;20209;-80
2022/05/15 03:16:45;;;;;;;24.17;14.13;;;;;9.80;101398.00;;;;10016704;29;20286;-82
2022/05/15 03:21:48;;;;;;;22.87;14.67;;;;;9.80;101401.00;;;;10010895;29;20201;-81
2022/05/15 03:26:49;;;;;;;30.23;15.37;;;;;9.70;101394.00;;;;9957104;29;20221;-81
2022/05/15 03:31:52;;;;;;;21.10;13.37;;;;;9.70;101404.00;;;;9980700;29;20670;-82
2022/05/15 03:36:54;;;;;;;24.63;14.47;;;;;9.60;101407.00;;;;9986829;29;20226;-81
2022/05/15 03:41:56;;;;;;;20.37;13.27;;;;;9.60;101404.00;;;;10022687;29;20296;-81
2022/05/15 03:46:58;;;;;;;21.80;13.77;;;;;9.70;101402.00;;;;9972831;29;20214;-81
2022/05/15 03:52:02;;;;;;;26.10;15.73;;;;;9.60;101408.00;;;;9990559;29;20204;-81
2022/05/15 03:57:05;;;;;;;27.57;14.23;;;;;9.60;101408.00;;;;9983386;29;20198;-81
2022/05/15 04:02:09;;;;;;;25.23;15.70;;;;;9.60;101407.00;;;;10008864;29;20238;-81
2022/05/15 04:07:11;;;;;;;23.57;14.30;;;;;9.60;101412.00;;;;9981038;29;20676;-81
2022/05/15 04:12:14;;;;;;;26.13;17.00;;;;;9.70;101422.00;;;;10014763;29;20211;-81
2022/05/15 04:17:16;;;;;;;24.90;15.83;;;;;9.80;101415.00;;;;9995085;29;20230;-81
2022/05/15 04:22:18;;;;;;;23.73;15.53;;;;;9.90;101410.00;;;;9949563;29;20233;-81
2022/05/15 04:27:20;;;;;;;21.77;14.20;;;;;9.90;101415.00;;;;10013126;29;20221;-81
2022/05/15 04:32:22;;;;;;;23.40;15.27;;;;;10.00;101416.00;;;;9978237;29;20212;-81
2022/05/15 04:37:24;;;;;;;26.30;14.50;;;;;10.20;101404.00;;;;9957613;29;20228;-81
2022/05/15 04:42:26;;;;;;;17.30;13.90;;;;;10.30;101407.00;;;;9996179;29;20245;-81
2022/05/15 04:47:28;;;;;;;26.57;15.83;;;;;10.50;101404.00;;;;10013305;29;20213;-81
2022/05/15 04:52:29;;;;;;;19.53;15.53;;;;;10.70;101402.00;;;;9977457;29;20274;-81
2022/05/15 04:57:32;;;;;;;23.83;15.80;;;;;11.00;101400.00;;;;9951940;29;20614;-81
2022/05/15 05:02:34;;;;;;;28.47;16.43;;;;;11.60;101399.00;;;;9978516;29;20202;-81
2022/05/15 05:07:36;;;;;;;28.90;16.93;;;;;12.00;101398.00;;;;9990003;29;20214;-82
2022/05/15 05:12:38;;;;;;;24.60;15.93;;;;;12.40;101401.00;;;;10005977;29;20208;-81
2022/05/15 05:17:41;;;;;;;27.07;15.53;;;;;12.70;101402.00;;;;9980148;29;20225;-81
2022/05/15 05:22:43;;;;;;;29.70;15.20;;;;;13.20;101408.00;;;;9982495;29;20202;-81
2022/05/15 05:27:45;;;;;;;25.93;15.20;;;;;13.80;101405.00;;;;9974073;29;20218;-81
2022/05/15 05:32:48;;;;;;;25.30;13.17;;;;;14.30;101403.00;;;;9950891;29;20615;-81
2022/05/15 05:37:51;;;;;;;27.47;14.03;;;;;14.60;101407.00;;;;9994112;29;20224;-81
2022/05/15 05:42:53;;;;;;;25.30;13.43;;;;;14.60;101411.00;;;;10000923;29;20292;-81
2022/05/15 05:47:55;;;;;;;19.87;12.60;;;;;15.20;101403.00;;;;9975802;29;20638;-82
2022/05/15 05:52:58;;;;;;;25.93;12.63;;;;;16.00;101408.00;;;;9970793;29;20197;-82
2022/05/15 05:58:00;;;;;;;16.17;11.17;;;;;16.80;101410.00;;;;10020701;29;20201;-81
2022/05/15 06:08:22;;;;;;;18.27;10.90;;;;;17.80;101402.00;;;;10027646;29;20241;-82
2022/05/15 06:13:25;;;;;;;21.75;10.57;;;;;18.10;101405.00;;;;9996847;29;20210;-79
2022/05/15 06:18:27;;;;;;;19.85;10.88;;;;;18.40;101398.00;;;;9995930;29;20230;-79
2022/05/15 06:23:29;;;;;;;19.40;11.45;;;;;18.60;101394.00;;;;9985981;29;20279;-79
2022/05/15 06:28:34;;;;;;;14.85;10.88;;;;;19.00;101397.00;;;;9967056;29;20225;-79
2022/05/15 06:33:36;;;;;;;16.00;11.15;;;;;19.10;101402.00;;;;9974479;29;20208;-82
2022/05/15 06:38:40;;;;;;;17.48;10.57;;;;;18.70;101394.00;;;;9995052;29;20202;-79
2022/05/15 06:43:42;;;;;;;19.13;11.20;;;;;18.90;101393.00;;;;9973377;29;20202;-79
2022/05/15 06:48:44;;;;;;;17.55;10.25;;;;;18.90;101395.00;;;;9936954;29;20217;-79
2022/05/15 06:53:47;;;;;;;18.55;10.63;;;;;19.50;101394.00;;;;10003902;29;20205;-79
2022/05/15 06:58:50;;;;;;;14.57;10.13;;;;;20.40;101393.00;;;;9994330;29;20200;-79
2022/05/15 07:03:51;;;;;;;16.70;10.65;;;;;20.90;101394.00;;;;9999160;29;20646;-80
2022/05/15 07:08:54;;;;;;;16.60;9.85;;;;;21.50;101393.00;;;;9979150;29;20214;-80
2022/05/15 07:13:56;;;;;;;19.05;10.27;;;;;22.20;101390.00;;;;10008018;29;20201;-80
2022/05/15 07:18:59;;;;;;;13.93;9.43;;;;;22.90;101388.00;;;;9994377;29;20240;-80
2022/05/15 07:24:01;;;;;;;14.55;9.15;;;;;23.20;101388.00;;;;10009641;29;20273;-80
2022/05/15 07:29:03;;;;;;;17.88;9.68;;;;;23.40;101385.00;;;;9978195;29;20218;-80
2022/05/15 07:34:07;;;;;;;15.30;9.35;;;;;23.70;101387.00;;;;9970921;29;20194;-80
2022/05/15 07:39:10;;;;;;;16.70;9.55;;;;;24.10;101382.00;;;;10008475;29;20193;-81
2022/05/15 07:44:12;;;;;;;14.38;8.45;;;;;24.40;101367.00;;;;9991564;29;20201;-80
2022/05/15 07:49:15;;;;;;;13.18;6.72;;;;;24.80;101367.00;;;;9977821;29;20300;-80
2022/05/15 07:54:18;;;;;;;12.70;7.57;;;;;25.20;101359.00;;;;9962777;29;20697;-81
2022/05/15 07:59:20;;;;;;;14.55;7.40;;;;;25.30;101357.00;;;;9991556;29;20197;-81
2022/05/15 08:04:22;;;;;;;13.52;6.93;;;;;25.70;101366.00;;;;10004863;29;20206;-81
2022/05/15 08:09:24;;;;;;;12.93;7.00;;;;;26.00;101361.00;;;;9975095;29;20221;-80
2022/05/15 08:14:29;;;;;;;14.60;6.47;;;;;26.20;101361.00;;;;9977910;29;20208;-83
2022/05/15 08:24:52;;;;;;;11.02;6.47;;;;;26.90;101341.00;;;;9992770;29;20201;-82
2022/05/15 08:29:55;;;;;;;12.23;6.18;;;;;27.10;101337.00;;;;9996446;29;20213;-79
2022/05/15 08:34:59;;;;;;;14.25;6.38;;;;;27.60;101342.00;;;;9990224;29;20565;-81
2022/05/15 08:40:01;;;;;;;13.05;6.53;;;;;27.90;101332.00;;;;9979256;29;20255;-82
2022/05/15 08:45:08;;;;;;;12.05;6.05;;;;;28.00;101327.00;;;;9958761;29;20213;-79
2022/05/15 08:50:14;;;;;;;13.25;6.57;;;;;28.20;101314.00;;;;9945355;29;20270;-80
2022/05/15 08:55:21;;;;;;;15.00;5.95;;;;;28.20;101320.00;;;;9998566;29;20193;-80
2022/05/15 09:00:33;;;;;;;8.63;4.60;;;;;28.50;101312.00;;;;9986810;29;20202;-83
2022/05/15 09:05:35;;;;;;;10.23;4.63;;;;;28.70;101314.00;;;;9977211;29;20197;-79
2022/05/15 09:10:52;;;;;;;11.57;4.30;;;;;29.00;101306.00;;;;9982452;29;20578;-79
2022/05/15 09:15:58;;;;;;;10.57;4.40;;;;;29.10;101305.00;;;;9972754;29;20725;-80
2022/05/15 09:21:12;;;;;;;9.18;4.18;;;;;29.30;101303.00;;;;9940865;29;20214;-78
2022/05/15 09:26:22;;;;;;;11.55;4.10;;;;;29.40;101308.00;;;;9991108;29;20929;-82
2022/05/15 09:31:29;;;;;;;6.43;3.50;;;;;29.80;101305.00;;;;9977300;29;20381;-81
2022/05/15 09:36:42;;;;;;;9.38;3.92;;;;;29.80;101301.00;;;;9962779;29;20205;-81
2022/05/15 09:47:19;;;;;;;9.35;3.47;;;;;30.40;101305.00;;;;10019409;29;20689;-81
2022/05/15 09:52:35;;;;;;;7.65;3.13;;;;;30.00;101294.00;;;;9974227;29;20220;-81
2022/05/15 09:57:38;;;;;;;9.73;3.63;;;;;30.10;101286.00;;;;10009244;29;20294;-81
2022/05/15 10:02:42;;;;;;;7.53;2.95;;;;;30.60;101297.00;;;;9975594;29;20202;-82
2022/05/15 10:08:10;;;;;;;7.55;2.90;;;;;31.10;101294.00;;;;9955661;29;20632;-82
2022/05/15 10:13:34;;;;;;;4.10;2.70;;;;;31.30;101281.00;;;;9971833;29;20669;-82
2022/05/15 10:19:02;;;;;;;6.68;2.92;;;;;31.10;101271.00;;;;9994472;29;20720;-81
2022/05/15 10:24:10;;;;;;;5.97;2.90;;;;;31.50;101269.00;;;;9952635;29;20567;-82
2022/05/15 10:29:23;;;;;;;6.72;2.55;;;;;31.90;101265.00;;;;9988698;29;20210;-81
2022/05/15 10:34:29;;;;;;;4.40;2.55;;;;;32.60;101260.00;;;;9992208;29;20206;-82
2022/05/15 10:39:45;;;;;;;5.40;2.72;;;;;32.70;101255.00;;;;9982075;29;20205;-82
2022/05/15 10:45:04;;;;;;;4.10;2.28;;;;;32.80;101253.00;;;;9999023;29;20233;-82
2022/05/15 10:50:41;;;;;;;6.07;2.10;;;;;32.80;101243.00;;;;10009118;29;20554;-83
2022/05/15 11:01:32;;;;;;;6.00;2.25;;;;;33.00;101237.00;;;;10009568;29;20212;-81
2022/05/15 11:07:00;;;;;;;3.28;2.08;;;;;33.40;101211.00;;;;9982362;29;20208;-81
2022/05/15 11:12:19;;;;;;;6.82;2.22;;;;;33.20;101211.00;;;;9988157;29;20587;-81
2022/05/15 11:17:53;;;;;;;3.55;1.65;;;;;33.00;101211.00;;;;9999206;29;20281;-81
2022/05/15 11:23:20;;;;;;;8.00;2.10;;;;;33.40;101209.00;;;;10002792;29;20599;-82
2022/05/15 11:28:40;;;;;;;4.70;1.42;;;;;34.00;101195.00;;;;9950391;29;20308;-81
2022/05/15 11:33:51;;;;;;;3.10;1.45;;;;;34.10;101182.00;;;;10015424;29;20212;-80
2022/05/15 11:39:13;;;;;;;4.65;2.17;;;;;34.20;101187.00;;;;9982532;29;20205;-81
2022/05/15 11:44:19;;;;;;;4.15;2.00;;;;;34.30;101174.00;;;;10003408;29;20194;-82
2022/05/15 11:49:42;;;;;;;6.40;1.60;;;;;34.40;101180.00;;;;9962281;29;20554;-80
2022/05/15 11:54:48;;;;;;;5.88;1.98;;;;;34.00;101164.00;;;;9971890;29;20206;-81
2022/05/15 11:59:57;;;;;;;4.95;1.88;;;;;34.20;101159.00;;;;9972748;29;20719;-82
2022/05/15 12:05:11;;;;;;;3.85;1.55;;;;;34.00;101163.00;;;;10030833;29;20213;-82
2022/05/15 12:10:35;;;;;;;4.70;1.75;;;;;32.70;101155.00;;;;9975913;29;20951;-82
2022/05/15 12:15:40;;;;;;;4.90;1.80;;;;;32.30;101154.00;;;;9956070;29;20324;-83
2022/05/15 12:20:48;;;;;;;5.50;1.70;;;;;32.70;101158.00;;;;9987054;29;20225;-82
2022/05/15 12:26:05;;;;;;;3.65;1.98;;;;;32.90;101149.00;;;;9969677;29;20207;-82
2022/05/15 12:31:13;;;;;;;3.53;1.90;;;;;33.20;101148.00;;;;9984446;29;20268;-83
2022/05/15 12:36:43;;;;;;;6.63;2.30;;;;;33.50;101145.00;;;;9977759;29;20225;-83
2022/05/15 12:41:45;;;;;;;5.40;2.25;;;;;32.90;101143.00;;;;9989379;29;20198;-83
2022/05/15 12:46:57;;;;;;;4.28;2.03;;;;;32.90;101141.00;;;;9988826;29;20206;-83
2022/05/15 12:52:17;;;;;;;4.40;2.00;;;;;33.50;101131.00;;;;9959182;29;20225;-82
2022/05/15 12:57:19;;;;;;;4.97;2.00;;;;;33.30;101126.00;;;;9987759;29;20197;-82
2022/05/15 13:02:30;;;;;;;8.23;2.20;;;;;33.40;101117.00;;;;9962640;29;20213;-83
2022/05/15 13:07:40;;;;;;;4.35;1.85;;;;;34.50;101111.00;;;;9988810;29;20214;-82
2022/05/15 13:12:56;;;;;;;3.80;2.10;;;;;34.80;101106.00;;;;9989810;29;20656;-83
2022/05/15 13:18:09;;;;;;;5.25;1.70;;;;;35.40;101110.00;;;;10005644;29;20261;-82
2022/05/15 13:23:12;;;;;;;3.33;1.50;;;;;36.00;101096.00;;;;9991637;29;20206;-82
2022/05/15 13:28:14;;;;;;;4.85;2.35;;;;;36.10;101094.00;;;;9985162;29;20222;-82
2022/05/15 13:33:20;;;;;;;6.28;1.95;;;;;37.30;101087.00;;;;10017703;29;20265;-83
2022/05/15 13:38:26;;;;;;;5.47;1.95;;;;;38.60;101080.00;;;;9971007;29;20206;-80
2022/05/15 13:43:29;;;;;;;6.70;1.80;;;;;39.40;101067.00;;;;10011836;29;20205;-81
2022/05/15 13:48:57;;;;;;;4.97;1.90;;;;;40.50;101062.00;;;;9997036;29;20681;-80
2022/05/15 13:54:08;;;;;;;5.40;1.90;;;;;41.20;101058.00;;;;9975442;29;20232;-82
2022/05/15 13:59:42;;;;;;;7.03;1.90;;;;;41.60;101048.00;;;;10003487;29;20891;-81
2022/05/15 14:04:57;;;;;;;3.65;1.80;;;;;41.60;101041.00;;;;9966706;29;20202;-81
2022/05/15 14:10:18;;;;;;;8.38;2.20;;;;;41.30;101037.00;;;;10000426;29;20210;-81
2022/05/15 14:15:44;;;;;;;2.42;1.50;;;;;41.00;101026.00;;;;10001446;29;20221;-81
2022/05/15 14:20:52;;;;;;;9.60;2.08;;;;;41.50;101015.00;;;;9960481;29;20242;-81
2022/05/15 14:25:54;;;;;;;4.38;2.00;;;;;41.10;101015.00;;;;9972941;29;20300;-82
2022/05/15 14:31:02;;;;;;;3.13;2.10;;;;;37.90;101006.00;;;;9988632;29;20210;-80
2022/05/15 14:36:13;;;;;;;4.07;1.85;;;;;40.90;100998.00;;;;10006425;29;20776;-80
2022/05/15 14:41:16;;;;;;;2.80;1.88;;;;;41.60;100994.00;;;;9999482;29;20202;-79
2022/05/15 14:46:27;;;;;;;2.83;1.70;;;;;41.70;100992.00;;;;9961150;29;20224;-80
2022/05/15 14:51:32;;;;;;;2.13;1.63;;;;;41.50;100983.00;;;;9972923;29;20246;-80
2022/05/15 14:56:34;;;;;;;2.85;1.63;;;;;41.80;100977.00;;;;9991268;29;20202;-80
2022/05/15 15:01:38;;;;;;;8.30;2.55;;;;;41.70;100977.00;;;;9989046;29;20204;-80
2022/05/15 15:06:41;;;;;;;8.07;2.10;;;;;42.10;100971.00;;;;9989653;29;20282;-80
2022/05/15 15:11:54;;;;;;;7.68;2.40;;;;;42.10;100965.00;;;;9975233;29;20274;-80
2022/05/15 15:16:57;;;;;;;5.30;2.10;;;;;42.10;100955.00;;;;9976221;29;20649;-79
2022/05/15 15:22:01;;;;;;;3.70;1.95;;;;;42.00;100945.00;;;;9989663;29;20201;-79
2022/05/15 15:27:03;;;;;;;8.43;2.55;;;;;41.20;100951.00;;;;9963372;29;20263;-79
2022/05/15 15:32:06;;;;;;;5.35;2.40;;;;;41.80;100940.00;;;;9971752;29;20221;-78
2022/05/15 15:42:29;;;;;;;8.68;2.35;;;;;39.10;100928.00;;;;9990760;29;20312;-79
2022/05/15 15:47:31;;;;;;;4.15;1.70;;;;;36.90;100918.00;;;;10007436;29;20203;-79
2022/05/15 15:52:34;;;;;;;3.03;1.75;;;;;36.50;100930.00;;;;9964066;29;20214;-80
2022/05/15 15:57:35;;;;;;;6.18;2.20;;;;;32.60;100928.00;;;;9986489;29;20206;-81
2022/05/15 16:02:42;;;;;;;8.10;2.22;;;;;31.00;100918.00;;;;9969390;29;20209;-79
2022/05/15 16:07:46;;;;;;;5.93;2.17;;;;;30.00;100910.00;;;;9965458;29;20198;-80
2022/05/15 16:12:48;;;;;;;5.05;1.88;;;;;29.40;100909.00;;;;9978531;29;20711;-80
2022/05/15 16:17:51;;;;;;;5.18;2.00;;;;;29.30;100897.00;;;;9974984;29;20282;-79
2022/05/15 16:22:53;;;;;;;4.20;2.35;;;;;29.20;100888.00;;;;9974047;29;20257;-80
2022/05/15 16:27:57;;;;;;;4.63;1.77;;;;;28.90;100881.00;;;;9958147;29;20229;-80
2022/05/15 16:33:01;;;;;;;5.85;1.90;;;;;28.70;100874.00;;;;9943783;29;20259;-79
2022/05/15 16:38:04;;;;;;;5.68;2.10;;;;;28.60;100855.00;;;;9999310;29;20258;-79
2022/05/15 16:43:05;;;;;;;3.85;1.73;;;;;28.50;100839.00;;;;9973708;29;20207;-80
2022/05/15 16:48:08;;;;;;;2.72;1.60;;;;;28.30;100843.00;;;;9970476;29;20212;-79
2022/05/15 16:53:10;;;;;;;3.95;1.83;;;;;28.10;100839.00;;;;9973997;29;20259;-79
2022/05/15 16:58:13;;;;;;;5.13;1.83;;;;;27.90;100827.00;;;;9965565;29;20190;-80
2022/05/15 17:03:17;;;;;;;6.32;1.95;;;;;27.70;100822.00;;;;10020499;29;20275;-80
2022/05/15 17:08:19;;;;;;;7.68;2.35;;;;;27.50;100819.00;;;;10037757;29;20559;-80
2022/05/15 17:13:21;;;;;;;4.82;2.05;;;;;27.30;100805.00;;;;10001136;29;20222;-80
2022/05/15 17:18:23;;;;;;;3.72;1.80;;;;;27.20;100795.00;;;;10034207;29;20237;-79
2022/05/15 17:23:26;;;;;;;4.97;2.00;;;;;27.10;100794.00;;;;10022082;29;20209;-80
2022/05/15 17:38:59;;;;;;;5.63;1.85;;;;;26.70;100764.00;;;;10014248;29;20250;-80
2022/05/15 17:44:02;;;;;;;5.13;2.40;;;;;26.60;100768.00;;;;10015785;29;20200;-80
2022/05/15 17:49:05;;;;;;;6.15;1.85;;;;;26.40;100769.00;;;;10011412;29;20210;-80
2022/05/15 17:54:06;;;;;;;7.18;2.10;;;;;26.30;100765.00;;;;10001045;29;20194;-80
2022/05/15 17:59:09;;;;;;;8.02;2.05;;;;;26.20;100768.00;;;;9995310;29;20202;-79
2022/05/15 18:04:11;;;;;;;3.35;1.60;;;;;26.00;100773.00;;;;9969197;29;20198;-80
2022/05/15 18:09:14;;;;;;;4.57;2.00;;;;;25.90;100772.00;;;;9981192;29;20224;-79
2022/05/15 18:14:16;;;;;;;3.80;1.80;;;;;25.70;100770.00;;;;10022465;29;20564;-78
2022/05/15 18:19:18;;;;;;;6.63;2.08;;;;;25.50;100780.00;;;;9976227;29;20245;-79
2022/05/15 18:24:21;;;;;;;4.65;1.73;;;;;25.40;100775.00;;;;9977552;29;20198;-79
2022/05/15 18:29:23;;;;;;;4.75;1.95;;;;;25.30;100783.00;;;;10003419;29;20224;-79
2022/05/15 18:34:26;;;;;;;4.35;1.75;;;;;25.10;100784.00;;;;9971775;29;20205;-79
2022/05/15 18:39:28;;;;;;;4.07;1.95;;;;;24.90;100785.00;;;;9974590;29;20210;-79
2022/05/15 18:44:31;;;;;;;5.40;2.03;;;;;24.70;100786.00;;;;9940458;29;20217;-79
2022/05/15 18:49:34;;;;;;;10.13;2.15;;;;;24.60;100781.00;;;;9988501;29;20217;-79
2022/05/15 18:54:55;;;;;;;6.45;2.33;;;;;24.40;100780.00;;;;10006370;29;20205;-79
2022/05/15 18:59:56;;;;;;;4.13;2.10;;;;;24.10;100786.00;;;;9971687;29;20201;-78
2022/05/15 19:04:59;;;;;;;6.85;2.47;;;;;23.90;100779.00;;;;9983336;29;20747;-79
2022/05/15 19:10:07;;;;;;;4.35;2.03;;;;;23.60;100794.00;;;;9989634;29;20222;-79
2022/05/15 19:15:10;;;;;;;5.68;2.30;;;;;23.20;100797.00;;;;9981110;29;20197;-79
2022/05/15 19:20:16;;;;;;;9.15;2.38;;;;;22.90;100798.00;;;;9990638;29;20225;-79
2022/05/15 19:25:19;;;;;;;5.50;1.98;;;;;22.70;100802.00;;;;9975789;29;20697;-80
2022/05/15 19:30:21;;;;;;;5.85;2.28;;;;;22.50;100805.00;;;;10017195;29;20210;-80
2022/05/15 19:35:23;;;;;;;9.65;2.30;;;;;22.30;100816.00;;;;9969025;29;20219;-79
2022/05/15 19:40:26;;;;;;;8.65;2.80;;;;;22.20;100820.00;;;;9960791;29;20250;-80
2022/05/15 19:45:28;;;;;;;6.15;2.00;;;;;22.00;100828.00;;;;9959719;29;20293;-80
2022/05/15 19:50:30;;;;;;;5.90;2.42;;;;;21.90;100837.00;;;;9974992;29;20309;-79
2022/05/15 19:55:32;;;;;;;5.20;1.70;;;;;21.70;100826.00;;;;9988700;29;20217;-79
2022/05/15 20:00:40;;;;;;;3.67;1.73;;;;;21.50;100821.00;;;;9984049;29;20206;-80
2022/05/15 20:16:24;;;;;;;6.93;2.35;;;;;21.10;100827.00;;;;10003051;29;20374;-80
2022/05/15 20:21:27;;;;;;;3.40;1.63;;;;;21.00;100827.00;;;;9983405;29;20689;-80
2022/05/15 20:26:30;;;;;;;4.20;1.92;;;;;20.90;100832.00;;;;9980682;29;20661;-80
2022/05/15 20:31:39;;;;;;;5.13;2.00;;;;;20.80;100849.00;;;;10001636;29;20217;-79
2022/05/15 20:36:41;;;;;;;6.82;2.20;;;;;20.70;100844.00;;;;10000373;29;20234;-79
2022/05/15 20:41:47;;;;;;;4.63;2.03;;;;;20.50;100848.00;;;;9986824;29;20571;-79
2022/05/15 20:46:49;;;;;;;4.22;2.38;;;;;20.40;100843.00;;;;9950092;29;20205;-80
2022/05/15 20:51:52;;;;;;;6.15;2.30;;;;;20.30;100833.00;;;;9980104;29;20214;-79
2022/05/15 20:56:54;;;;;;;5.05;2.10;;;;;20.20;100848.00;;;;9987524;29;20237;-80
2022/05/15 21:01:57;;;;;;;4.00;2.00;;;;;20.10;100859.00;;;;9988585;29;20234;-79
2022/05/15 21:06:59;;;;;;;6.72;2.00;;;;;20.00;100851.00;;;;9992205;29;20214;-79
2022/05/15 21:12:01;;;;;;;6.53;2.22;;;;;20.00;100839.00;;;;9971318;29;20213;-79
2022/05/15 21:17:04;;;;;;;5.20;2.17;;;;;20.10;100817.00;;;;9964476;29;20321;-79
2022/05/15 21:22:06;;;;;;;5.57;2.13;;;;;20.20;100806.00;;;;9976417;29;20655;-81
2022/05/15 21:27:07;;;;;;;3.35;1.98;;;;;20.30;100798.00;;;;9990161;29;20202;-80
2022/05/15 21:32:09;;;;;;;5.50;2.05;;;;;20.40;100792.00;;;;9972184;29;20225;-80
2022/05/15 21:37:12;;;;;;;5.43;2.20;;;;;20.40;100788.00;;;;9944596;29;20202;-79
2022/05/15 21:47:35;;;;;;;5.00;2.50;;;;;20.50;100786.00;;;;10012930;29;20828;-80
2022/05/15 21:52:37;;;;;;;3.58;2.00;;;;;20.40;100781.00;;;;9974438;29;20217;-79
2022/05/15 21:57:39;;;;;;;3.50;2.10;;;;;20.40;100784.00;;;;10011516;29;20272;-80
2022/05/15 22:02:42;;;;;;;5.50;2.40;;;;;20.30;100782.00;;;;9973861;29;20553;-79
2022/05/15 22:07:44;;;;;;;5.90;2.50;;;;;20.10;100770.00;;;;9994896;29;20685;-79
2022/05/15 22:12:47;;;;;;;3.55;2.38;;;;;20.00;100774.00;;;;9983045;29;20246;-80
2022/05/15 22:17:49;;;;;;;6.50;2.28;;;;;19.90;100776.00;;;;9955822;29;20221;-80
2022/05/15 22:22:51;;;;;;;6.60;2.30;;;;;19.80;100770.00;;;;9988672;29;20246;-79
2022/05/15 22:27:55;;;;;;;4.30;2.17;;;;;19.60;100773.00;;;;9978958;29;20212;-79
2022/05/15 22:32:57;;;;;;;3.60;2.30;;;;;19.40;100771.00;;;;9994064;29;20209;-80
2022/05/15 22:37:59;;;;;;;4.57;2.30;;;;;19.20;100777.00;;;;10022582;29;20201;-80
2022/05/15 22:43:00;;;;;;;5.60;2.47;;;;;19.10;100784.00;;;;9988008;29;20202;-81
2022/05/15 22:48:03;;;;;;;6.18;1.88;;;;;19.10;100781.00;;;;9997463;29;20300;-80
2022/05/15 22:53:05;;;;;;;4.72;1.92;;;;;19.10;100774.00;;;;9994335;29;20277;-80
2022/05/15 22:58:08;;;;;;;4.03;1.83;;;;;19.10;100765.00;;;;9982886;29;20202;-80
2022/05/15 23:03:10;;;;;;;4.30;2.75;;;;;19.00;100763.00;;;;9988864;29;20206;-80
2022/05/15 23:08:12;;;;;;;3.90;2.10;;;;;18.80;100755.00;;;;9993440;29;20254;-80
2022/05/15 23:13:14;;;;;;;6.07;2.50;;;;;18.80;100746.00;;;;9972997;29;20669;-80
2022/05/15 23:18:16;;;;;;;4.45;2.60;;;;;18.70;100749.00;;;;10008498;29;20236;-80
2022/05/15 23:23:17;;;;;;;6.55;2.47;;;;;18.60;100745.00;;;;9973715;29;20205;-80
2022/05/15 23:28:20;;;;;;;4.72;2.30;;;;;18.60;100739.00;;;;10028672;29;20261;-80
2022/05/15 23:33:22;;;;;;;5.53;2.58;;;;;18.50;100742.00;;;;9995545;29;20206;-80
2022/05/15 23:38:24;;;;;;;4.90;2.38;;;;;18.50;100747.00;;;;9963003;29;20206;-80
2022/05/15 23:43:27;;;;;;;6.18;2.38;;;;;18.30;100737.00;;;;9993091;29;20614;-80
2022/05/15 23:48:29;;;;;;;5.15;2.42;;;;;18.20;100746.00;;;;9977279;29;20198;-80
2022/05/15 23:53:31;;;;;;;5.35;2.55;;;;;18.00;100756.00;;;;9977682;29;20281;-79
2022/05/15 23:58:36;;;;;;;8.68;2.92;;;;;17.90;100740.00;;;;10043042;29;20197;-79
